Kuito Airport


Codes: FNKU/SVP
Name: Kuito Airport
City: Kuito
Country: Angola
Elevation: 5618 ft.

Photos at Kuito Airport


   Photos courtesy of SpottingLog. You can add your own sightings and photos by signing up for a free trial today.



No photos found.

Weather at Kuito Airport


Time (UTC)DescriptionTempratureWindCloud coverageVisibilityPressureHumidity
18-Apr-2024 00:00Clear Sky16°C2 mph, E8%10000m1017hPa90%
18-Apr-2024 03:00Clear Sky15°C2 mph, E5%10000m1016hPa92%
18-Apr-2024 06:00Few Clouds17°C2 mph, SE21%10000m1018hPa90%
18-Apr-2024 09:00Broken Clouds23°C9 mph, E82%10000m1017hPa63%
18-Apr-2024 12:00Overcast Clouds25°C9 mph, E91%10000m1014hPa50%
18-Apr-2024 15:00Overcast Clouds24°C4 mph, E98%10000m1013hPa63%
18-Apr-2024 18:00Overcast Clouds20°C2 mph, SE98%10000m1015hPa67%
18-Apr-2024 21:00Scattered Clouds17°C2 mph, E45%10000m1018hPa78%
19-Apr-2024 00:00Broken Clouds15°C4 mph, SE53%10000m1017hPa81%
19-Apr-2024 03:00Overcast Clouds14°C2 mph, S93%10000m1017hPa79%
19-Apr-2024 06:00Overcast Clouds17°C2 mph, SE92%10000m1018hPa75%
19-Apr-2024 09:00Broken Clouds23°C11 mph, E58%10000m1017hPa53%
19-Apr-2024 12:00Broken Clouds25°C11 mph, E69%10000m1013hPa45%
19-Apr-2024 15:00Overcast Clouds24°C4 mph, E86%10000m1012hPa55%
19-Apr-2024 18:00Broken Clouds20°C2 mph, SE72%10000m1014hPa66%
19-Apr-2024 21:00Broken Clouds17°C2 mph, E54%10000m1017hPa76%
20-Apr-2024 00:00Broken Clouds17°C4 mph, SE62%10000m1016hPa73%
20-Apr-2024 03:00Scattered Clouds15°C2 mph, SE32%10000m1016hPa76%
20-Apr-2024 06:00Scattered Clouds16°C2 mph, S42%10000m1017hPa73%
20-Apr-2024 09:00Broken Clouds23°C7 mph, SE80%10000m1015hPa50%
20-Apr-2024 12:00Overcast Clouds24°C9 mph, SE90%10000m1013hPa47%
20-Apr-2024 15:00Overcast Clouds24°C4 mph, SE100%10000m1012hPa58%
20-Apr-2024 18:00Overcast Clouds19°C2 mph, SE100%10000m1014hPa67%
20-Apr-2024 21:00Overcast Clouds19°C2 mph, SE98%10000m1015hPa66%
21-Apr-2024 00:00Overcast Clouds16°C0 mph, E99%10000m1015hPa77%
21-Apr-2024 03:00Broken Clouds14°C2 mph, E71%10000m1015hPa82%
21-Apr-2024 06:00Broken Clouds17°C2 mph, SE82%10000m1016hPa78%
21-Apr-2024 09:00Overcast Clouds23°C7 mph, E100%10000m1015hPa53%
21-Apr-2024 12:00Overcast Clouds24°C9 mph, E100%10000m1012hPa47%
21-Apr-2024 15:00Overcast Clouds24°C4 mph, NE96%10000m1010hPa55%
21-Apr-2024 18:00Overcast Clouds18°C2 mph, NW92%10000m1013hPa70%
21-Apr-2024 21:00Broken Clouds18°C2 mph, SE76%10000m1014hPa66%
22-Apr-2024 00:00Broken Clouds18°C0 mph, NE71%10000m1014hPa70%
22-Apr-2024 03:00Broken Clouds16°C2 mph, SE65%10000m1014hPa80%
22-Apr-2024 06:00Broken Clouds17°C2 mph, SE70%10000m1016hPa79%
22-Apr-2024 09:00Scattered Clouds23°C7 mph, E31%10000m1015hPa49%
22-Apr-2024 12:00Scattered Clouds25°C7 mph, E31%10000m1012hPa42%
22-Apr-2024 15:00Broken Clouds23°C2 mph, NE84%10000m1011hPa60%
22-Apr-2024 18:00Overcast Clouds19°C2 mph, W88%10000m1013hPa65%
22-Apr-2024 21:00Overcast Clouds18°C2 mph, SE89%10000m1014hPa65%